sensor_id;sensor_type;location;lat;lon;timestamp;pressure;altitude;pressure_sealevel;temperature;humidity
19890;BME280;10107;51.198;6.824;2023-01-19T00:02:10;-21336.03;;;0.56;100.00
19890;BME280;10107;51.198;6.824;2023-01-19T00:06:11;-21334.97;;;0.52;100.00
19890;BME280;10107;51.198;6.824;2023-01-19T00:10:13;-21332.94;;;0.45;100.00
19890;BME280;10107;51.198;6.824;2023-01-19T00:14:15;-21331.22;;;0.38;100.00
19890;BME280;10107;51.198;6.824;2023-01-19T00:18:18;-21331.22;;;0.38;100.00
19890;BME280;10107;51.198;6.824;2023-01-19T00:22:20;-21333.91;;;0.48;100.00
19890;BME280;10107;51.198;6.824;2023-01-19T00:26:22;-21336.84;;;0.59;100.00
19890;BME280;10107;51.198;6.824;2023-01-19T00:30:23;-21337.13;;;0.61;100.00
19890;BME280;10107;51.198;6.824;2023-01-19T00:34:26;-21334.84;;;0.52;100.00
19890;BME280;10107;51.198;6.824;2023-01-19T00:38:36;-21332.81;;;0.44;100.00
19890;BME280;10107;51.198;6.824;2023-01-19T00:42:38;-21330.41;;;0.35;100.00
19890;BME280;10107;51.198;6.824;2023-01-19T00:46:44;-21326.91;;;0.22;100.00
19890;BME280;10107;51.198;6.824;2023-01-19T00:50:47;-21325.28;;;0.15;100.00
19890;BME280;10107;51.198;6.824;2023-01-19T00:54:49;-21325.81;;;0.17;100.00
19890;BME280;10107;51.198;6.824;2023-01-19T00:58:51;-21325.28;;;0.15;100.00
19890;BME280;10107;51.198;6.824;2023-01-19T01:02:53;-21326.91;;;0.22;100.00
19890;BME280;10107;51.198;6.824;2023-01-19T01:06:56;-21328.66;;;0.28;100.00
19890;BME280;10107;51.198;6.824;2023-01-19T01:10:58;-21327.97;;;0.26;100.00
19890;BME280;10107;51.198;6.824;2023-01-19T01:15:00;-21327.16;;;0.23;100.00
19890;BME280;10107;51.198;6.824;2023-01-19T01:19:02;-21327.16;;;0.23;100.00
19890;BME280;10107;51.198;6.824;2023-01-19T01:23:05;-21326.34;;;0.19;100.00
19890;BME280;10107;51.198;6.824;2023-01-19T01:27:07;-21325.69;;;0.17;100.00
19890;BME280;10107;51.198;6.824;2023-01-19T01:31:08;-21324.47;;;0.12;100.00
19890;BME280;10107;51.198;6.824;2023-01-19T01:35:10;-21324.88;;;0.14;100.00
19890;BME280;10107;51.198;6.824;2023-01-19T01:39:14;-21324.88;;;0.14;100.00
19890;BME280;10107;51.198;6.824;2023-01-19T01:43:17;-21325.81;;;0.17;100.00
19890;BME280;10107;51.198;6.824;2023-01-19T01:47:25;-21327.72;;;0.25;100.00
19890;BME280;10107;51.198;6.824;2023-01-19T01:51:32;-21329.19;;;0.30;100.00
19890;BME280;10107;51.198;6.824;2023-01-19T01:55:39;-21329.84;;;0.33;100.00
19890;BME280;10107;51.198;6.824;2023-01-19T01:59:45;-21330.41;;;0.35;100.00
19890;BME280;10107;51.198;6.824;2023-01-19T02:03:48;-21330.53;;;0.35;100.00
19890;BME280;10107;51.198;6.824;2023-01-19T02:07:54;-21330.25;;;0.34;100.00
19890;BME280;10107;51.198;6.824;2023-01-19T02:12:15;-21330.00;;;0.33;100.00
19890;BME280;10107;51.198;6.824;2023-01-19T02:16:36;-21331.22;;;0.38;100.00
19890;BME280;10107;51.198;6.824;2023-01-19T02:20:38;-21331.75;;;0.40;100.00
19890;BME280;10107;51.198;6.824;2023-01-19T02:24:42;-21332.16;;;0.42;100.00
19890;BME280;10107;51.198;6.824;2023-01-19T02:28:45;-21331.34;;;0.38;100.00
19890;BME280;10107;51.198;6.824;2023-01-19T02:32:48;-21330.13;;;0.34;100.00
19890;BME280;10107;51.198;6.824;2023-01-19T02:36:52;-21328.25;;;0.27;100.00
19890;BME280;10107;51.198;6.824;2023-01-19T02:40:58;-21326.09;;;0.18;100.00
19890;BME280;10107;51.198;6.824;2023-01-19T02:45:01;-21325.56;;;0.16;100.00
19890;BME280;10107;51.198;6.824;2023-01-19T02:49:06;-21327.03;;;0.22;100.00
19890;BME280;10107;51.198;6.824;2023-01-19T02:57:52;-21324.88;;;0.14;100.00
19890;BME280;10107;51.198;6.824;2023-01-19T03:02:09;-21323.41;;;0.08;100.00
19890;BME280;10107;51.198;6.824;2023-01-19T03:06:24;-21322.47;;;0.05;100.00
19890;BME280;10107;51.198;6.824;2023-01-19T03:10:38;-21321.38;;;0.01;100.00
19890;BME280;10107;51.198;6.824;2023-01-19T03:14:46;-21319.91;;;-0.05;100.00
19890;BME280;10107;51.198;6.824;2023-01-19T03:18:51;-21318.84;;;-0.09;100.00
19890;BME280;10107;51.198;6.824;2023-01-19T03:22:59;-21318.28;;;-0.11;100.00
19890;BME280;10107;51.198;6.824;2023-01-19T03:27:05;-21317.75;;;-0.13;100.00
19890;BME280;10107;51.198;6.824;2023-01-19T03:31:13;-21319.78;;;-0.06;100.00
19890;BME280;10107;51.198;6.824;2023-01-19T03:35:17;-21320.16;;;-0.04;100.00
19890;BME280;10107;51.198;6.824;2023-01-19T03:39:22;-21320.84;;;-0.02;100.00
19890;BME280;10107;51.198;6.824;2023-01-19T03:43:24;-21322.31;;;0.04;100.00
19890;BME280;10107;51.198;6.824;2023-01-19T03:47:28;-21325.28;;;0.15;100.00
19890;BME280;10107;51.198;6.824;2023-01-19T03:51:34;-21328.25;;;0.27;100.00
19890;BME280;10107;51.198;6.824;2023-01-19T03:55:38;-21331.47;;;0.39;100.00
19890;BME280;10107;51.198;6.824;2023-01-19T03:59:41;-21334.69;;;0.51;100.00
19890;BME280;10107;51.198;6.824;2023-01-19T04:03:44;-21337.13;;;0.61;100.00
19890;BME280;10107;51.198;6.824;2023-01-19T04:07:47;-21338.59;;;0.66;100.00
19890;BME280;10107;51.198;6.824;2023-01-19T04:11:48;-21338.19;;;0.65;100.00
19890;BME280;10107;51.198;6.824;2023-01-19T04:15:50;-21336.84;;;0.59;100.00
19890;BME280;10107;51.198;6.824;2023-01-19T04:19:54;-21335.38;;;0.54;100.00
19890;BME280;10107;51.198;6.824;2023-01-19T04:23:56;-21334.44;;;0.50;100.00
19890;BME280;10107;51.198;6.824;2023-01-19T04:27:58;-21333.22;;;0.46;100.00
19890;BME280;10107;51.198;6.824;2023-01-19T04:32:00;-21333.09;;;0.45;100.00
19890;BME280;10107;51.198;6.824;2023-01-19T04:36:03;-21332.53;;;0.43;100.00
19890;BME280;10107;51.198;6.824;2023-01-19T04:40:06;-21332.41;;;0.43;100.00
19890;BME280;10107;51.198;6.824;2023-01-19T04:44:08;-21332.81;;;0.44;100.00
19890;BME280;10107;51.198;6.824;2023-01-19T04:48:10;-21332.53;;;0.43;100.00
19890;BME280;10107;51.198;6.824;2023-01-19T04:52:13;-21332.94;;;0.45;100.00
19890;BME280;10107;51.198;6.824;2023-01-19T04:56:15;-21332.00;;;0.41;100.00
19890;BME280;10107;51.198;6.824;2023-01-19T05:00:17;-21330.53;;;0.35;100.00
19890;BME280;10107;51.198;6.824;2023-01-19T05:04:20;-21330.13;;;0.34;100.00
19890;BME280;10107;51.198;6.824;2023-01-19T05:08:24;-21327.84;;;0.25;100.00
19890;BME280;10107;51.198;6.824;2023-01-19T05:12:26;-21325.69;;;0.17;100.00
19890;BME280;10107;51.198;6.824;2023-01-19T05:16:27;-21325.28;;;0.15;100.00
19890;BME280;10107;51.198;6.824;2023-01-19T05:20:29;-21324.06;;;0.11;100.00
19890;BME280;10107;51.198;6.824;2023-01-19T05:24:32;-21323.00;;;0.07;100.00
19890;BME280;10107;51.198;6.824;2023-01-19T05:28:34;-21321.78;;;0.02;100.00
19890;BME280;10107;51.198;6.824;2023-01-19T05:32:36;-21321.13;;;-0.01;100.00
19890;BME280;10107;51.198;6.824;2023-01-19T05:36:38;-21319.91;;;-0.05;100.00
19890;BME280;10107;51.198;6.824;2023-01-19T05:40:41;-21319.22;;;-0.08;100.00
19890;BME280;10107;51.198;6.824;2023-01-19T05:44:42;-21317.63;;;-0.14;100.00
19890;BME280;10107;51.198;6.824;2023-01-19T05:48:44;-21317.63;;;-0.14;100.00
19890;BME280;10107;51.198;6.824;2023-01-19T05:52:46;-21317.34;;;-0.15;100.00
19890;BME280;10107;51.198;6.824;2023-01-19T05:56:49;-21316.94;;;-0.16;100.00
19890;BME280;10107;51.198;6.824;2023-01-19T06:00:51;-21317.22;;;-0.15;100.00
19890;BME280;10107;51.198;6.824;2023-01-19T06:04:53;-21316.41;;;-0.18;100.00
19890;BME280;10107;51.198;6.824;2023-01-19T06:08:55;-21317.63;;;-0.14;100.00
19890;BME280;10107;51.198;6.824;2023-01-19T06:12:58;-21317.47;;;-0.14;100.00
19890;BME280;10107;51.198;6.824;2023-01-19T06:16:59;-21316.81;;;-0.17;100.00
19890;BME280;10107;51.198;6.824;2023-01-19T06:21:05;-21316.81;;;-0.17;100.00
19890;BME280;10107;51.198;6.824;2023-01-19T06:25:07;-21317.47;;;-0.14;100.00
19890;BME280;10107;51.198;6.824;2023-01-19T06:29:11;-21318.28;;;-0.11;100.00
19890;BME280;10107;51.198;6.824;2023-01-19T06:33:13;-21318.28;;;-0.11;100.00
19890;BME280;10107;51.198;6.824;2023-01-19T06:37:15;-21319.09;;;-0.08;100.00
19890;BME280;10107;51.198;6.824;2023-01-19T06:41:17;-21319.22;;;-0.08;100.00
19890;BME280;10107;51.198;6.824;2023-01-19T06:45:20;-21319.09;;;-0.08;100.00
19890;BME280;10107;51.198;6.824;2023-01-19T06:49:22;-21319.50;;;-0.07;100.00
19890;BME280;10107;51.198;6.824;2023-01-19T06:53:23;-21320.16;;;-0.04;100.00
19890;BME280;10107;51.198;6.824;2023-01-19T06:57:27;-21320.03;;;-0.05;100.00
19890;BME280;10107;51.198;6.824;2023-01-19T07:01:30;-21319.91;;;-0.05;100.00
19890;BME280;10107;51.198;6.824;2023-01-19T07:05:33;-21319.91;;;-0.05;100.00
19890;BME280;10107;51.198;6.824;2023-01-19T07:09:35;-21319.63;;;-0.06;100.00
19890;BME280;10107;51.198;6.824;2023-01-19T07:13:38;-21319.63;;;-0.06;100.00
19890;BME280;10107;51.198;6.824;2023-01-19T07:17:41;-21319.63;;;-0.06;100.00
19890;BME280;10107;51.198;6.824;2023-01-19T07:21:43;-21319.78;;;-0.06;100.00
19890;BME280;10107;51.198;6.824;2023-01-19T07:25:45;-21320.72;;;-0.02;100.00
19890;BME280;10107;51.198;6.824;2023-01-19T07:29:47;-21320.44;;;-0.03;100.00
19890;BME280;10107;51.198;6.824;2023-01-19T07:33:50;-21320.56;;;-0.03;100.00
19890;BME280;10107;51.198;6.824;2023-01-19T07:37:51;-21321.13;;;-0.01;100.00
19890;BME280;10107;51.198;6.824;2023-01-19T07:41:53;-21322.06;;;0.03;100.00
19890;BME280;10107;51.198;6.824;2023-01-19T07:45:57;-21323.28;;;0.08;100.00
19890;BME280;10107;51.198;6.824;2023-01-19T07:50:00;-21324.22;;;0.11;100.00
19890;BME280;10107;51.198;6.824;2023-01-19T07:54:02;-21325.16;;;0.15;100.00
19890;BME280;10107;51.198;6.824;2023-01-19T07:58:04;-21326.91;;;0.22;100.00
19890;BME280;10107;51.198;6.824;2023-01-19T08:02:08;-21327.97;;;0.26;100.00
19890;BME280;10107;51.198;6.824;2023-01-19T08:06:18;-21329.44;;;0.31;100.00
19890;BME280;10107;51.198;6.824;2023-01-19T08:10:20;-21330.94;;;0.37;100.00
19890;BME280;10107;51.198;6.824;2023-01-19T08:14:25;-21332.00;;;0.41;100.00
19890;BME280;10107;51.198;6.824;2023-01-19T08:18:26;-21332.81;;;0.44;100.00
19890;BME280;10107;51.198;6.824;2023-01-19T08:22:30;-21334.03;;;0.49;100.00
19890;BME280;10107;51.198;6.824;2023-01-19T08:26:33;-21335.50;;;0.54;100.00
19890;BME280;10107;51.198;6.824;2023-01-19T08:30:35;-21334.56;;;0.51;100.00
19890;BME280;10107;51.198;6.824;2023-01-19T08:34:36;-21335.25;;;0.53;100.00
19890;BME280;10107;51.198;6.824;2023-01-19T08:38:39;-21337.94;;;0.64;100.00
19890;BME280;10107;51.198;6.824;2023-01-19T08:42:43;-21340.06;;;0.72;100.00
19890;BME280;10107;51.198;6.824;2023-01-19T08:46:45;-21341.69;;;0.78;100.00
19890;BME280;10107;51.198;6.824;2023-01-19T08:50:48;-21344.78;;;0.90;100.00
19890;BME280;10107;51.198;6.824;2023-01-19T08:54:52;-21347.72;;;1.01;100.00
19890;BME280;10107;51.198;6.824;2023-01-19T08:58:53;-21350.41;;;1.11;100.00
19890;BME280;10107;51.198;6.824;2023-01-19T09:02:55;-21351.38;;;1.15;100.00
19890;BME280;10107;51.198;6.824;2023-01-19T09:06:56;-21352.72;;;1.20;100.00
19890;BME280;10107;51.198;6.824;2023-01-19T09:11:00;-21356.19;;;1.33;100.00
19890;BME280;10107;51.198;6.824;2023-01-19T09:15:02;-21357.53;;;1.38;100.00
19890;BME280;10107;51.198;6.824;2023-01-19T09:19:04;-21358.88;;;1.44;100.00
19890;BME280;10107;51.198;6.824;2023-01-19T09:23:08;-21358.47;;;1.42;100.00
19890;BME280;10107;51.198;6.824;2023-01-19T09:27:12;-21359.97;;;1.48;100.00
19890;BME280;10107;51.198;6.824;2023-01-19T09:31:14;-21363.59;;;1.62;100.00
19890;BME280;10107;51.198;6.824;2023-01-19T09:35:16;-21366.13;;;1.71;100.00
19890;BME280;10107;51.198;6.824;2023-01-19T09:39:17;-21368.81;;;1.82;100.00
19890;BME280;10107;51.198;6.824;2023-01-19T09:43:31;-21367.06;;;1.75;100.00
19890;BME280;10107;51.198;6.824;2023-01-19T09:47:34;-21366.41;;;1.72;100.00
19890;BME280;10107;51.198;6.824;2023-01-19T09:51:39;-21365.19;;;1.68;100.00
19890;BME280;10107;51.198;6.824;2023-01-19T09:55:42;-21363.19;;;1.60;100.00
19890;BME280;10107;51.198;6.824;2023-01-19T09:59:46;-21361.56;;;1.54;100.00
19890;BME280;10107;51.198;6.824;2023-01-19T10:03:57;-21360.09;;;1.48;100.00
19890;BME280;10107;51.198;6.824;2023-01-19T10:08:15;-21360.50;;;1.50;100.00
19890;BME280;10107;51.198;6.824;2023-01-19T10:12:28;-21362.09;;;1.56;100.00
19890;BME280;10107;51.198;6.824;2023-01-19T10:16:40;-21364.50;;;1.65;100.00
19890;BME280;10107;51.198;6.824;2023-01-19T10:20:49;-21363.84;;;1.63;100.00
19890;BME280;10107;51.198;6.824;2023-01-19T10:24:53;-21362.78;;;1.58;100.00
19890;BME280;10107;51.198;6.824;2023-01-19T10:28:58;-21362.09;;;1.56;100.00
19890;BME280;10107;51.198;6.824;2023-01-19T10:33:03;-21364.38;;;1.65;100.00
19890;BME280;10107;51.198;6.824;2023-01-19T10:37:16;-21369.47;;;1.84;100.00
19890;BME280;10107;51.198;6.824;2023-01-19T10:41:24;-21368.81;;;1.82;100.00
19890;BME280;10107;51.198;6.824;2023-01-19T10:45:29;-21368.28;;;1.80;100.00
19890;BME280;10107;51.198;6.824;2023-01-19T10:49:36;-21367.59;;;1.77;100.00
19890;BME280;10107;51.198;6.824;2023-01-19T10:53:39;-21367.59;;;1.77;100.00
19890;BME280;10107;51.198;6.824;2023-01-19T10:57:47;-21371.38;;;1.91;100.00
19890;BME280;10107;51.198;6.824;2023-01-19T11:02:02;-21377.41;;;2.14;100.00
19890;BME280;10107;51.198;6.824;2023-01-19T11:06:19;-21379.53;;;2.23;100.00
19890;BME280;10107;51.198;6.824;2023-01-19T11:10:23;-21384.25;;;2.41;100.00
19890;BME280;10107;51.198;6.824;2023-01-19T11:14:28;-21400.84;;;3.04;100.00
19890;BME280;10107;51.198;6.824;2023-01-19T11:18:33;-21403.41;;;3.14;100.00
19890;BME280;10107;51.198;6.824;2023-01-19T11:22:37;-21394.28;;;2.79;100.00
19890;BME280;10107;51.198;6.824;2023-01-19T11:26:41;-21390.13;;;2.63;100.00
19890;BME280;10107;51.198;6.824;2023-01-19T11:30:53;-21385.44;;;2.45;100.00
19890;BME280;10107;51.198;6.824;2023-01-19T11:34:55;-21383.69;;;2.38;100.00
19890;BME280;10107;51.198;6.824;2023-01-19T11:39:01;-21387.06;;;2.51;100.00
19890;BME280;10107;51.198;6.824;2023-01-19T11:43:15;-21387.06;;;2.51;100.00
19890;BME280;10107;51.198;6.824;2023-01-19T11:47:23;-21388.00;;;2.55;100.00
19890;BME280;10107;51.198;6.824;2023-01-19T11:51:29;-21389.72;;;2.62;100.00
19890;BME280;10107;51.198;6.824;2023-01-19T11:55:41;-21391.06;;;2.67;100.00
19890;BME280;10107;51.198;6.824;2023-01-19T11:59:44;-21391.22;;;2.67;100.00
19890;BME280;10107;51.198;6.824;2023-01-19T12:03:50;-21394.81;;;2.81;100.00
19890;BME280;10107;51.198;6.824;2023-01-19T12:07:55;-21398.84;;;2.96;100.00
19890;BME280;10107;51.198;6.824;2023-01-19T12:12:02;-21400.44;;;3.03;100.00
19890;BME280;10107;51.198;6.824;2023-01-19T12:16:08;-21397.50;;;2.91;100.00
19890;BME280;10107;51.198;6.824;2023-01-19T12:20:15;-21398.84;;;2.96;100.00
19890;BME280;10107;51.198;6.824;2023-01-19T12:24:27;-21398.31;;;2.94;100.00
19890;BME280;10107;51.198;6.824;2023-01-19T12:28:33;-21397.25;;;2.90;100.00
19890;BME280;10107;51.198;6.824;2023-01-19T12:32:37;-21393.34;;;2.75;100.00
19890;BME280;10107;51.198;6.824;2023-01-19T12:36:39;-21399.53;;;2.99;100.00
19890;BME280;10107;51.198;6.824;2023-01-19T12:40:40;-21403.66;;;3.15;100.00
19890;BME280;10107;51.198;6.824;2023-01-19T12:44:44;-21406.06;;;3.24;100.00
19890;BME280;10107;51.198;6.824;2023-01-19T12:48:47;-21404.47;;;3.18;100.00
19890;BME280;10107;51.198;6.824;2023-01-19T12:52:50;-21405.28;;;3.21;100.00
19890;BME280;10107;51.198;6.824;2023-01-19T12:56:57;-21405.28;;;3.21;100.00
19890;BME280;10107;51.198;6.824;2023-01-19T13:01:14;-21405.94;;;3.24;100.00
19890;BME280;10107;51.198;6.824;2023-01-19T13:05:21;-21406.63;;;3.26;100.00
19890;BME280;10107;51.198;6.824;2023-01-19T13:09:28;-21411.03;;;3.43;100.00
19890;BME280;10107;51.198;6.824;2023-01-19T13:13:31;-21412.63;;;3.49;100.00
19890;BME280;10107;51.198;6.824;2023-01-19T13:17:45;-21413.59;;;3.53;100.00
19890;BME280;10107;51.198;6.824;2023-01-19T13:21:49;-21410.50;;;3.41;100.00
19890;BME280;10107;51.198;6.824;2023-01-19T13:26:03;-21404.06;;;3.16;100.00
19890;BME280;10107;51.198;6.824;2023-01-19T13:30:09;-21399.78;;;3.00;100.00
19890;BME280;10107;51.198;6.824;2023-01-19T13:34:15;-21398.44;;;2.95;100.00
19890;BME280;10107;51.198;6.824;2023-01-19T13:38:18;-21397.91;;;2.93;100.00
19890;BME280;10107;51.198;6.824;2023-01-19T13:42:27;-21397.25;;;2.90;100.00
19890;BME280;10107;51.198;6.824;2023-01-19T13:46:30;-21399.38;;;2.98;100.00
19890;BME280;10107;51.198;6.824;2023-01-19T13:50:36;-21400.72;;;3.04;100.00
19890;BME280;10107;51.198;6.824;2023-01-19T13:54:46;-21406.06;;;3.24;100.00
19890;BME280;10107;51.198;6.824;2023-01-19T13:59:02;-21413.72;;;3.53;100.00
19890;BME280;10107;51.198;6.824;2023-01-19T14:03:15;-21413.03;;;3.51;100.00
19890;BME280;10107;51.198;6.824;2023-01-19T14:07:22;-21407.56;;;3.30;100.00
19890;BME280;10107;51.198;6.824;2023-01-19T14:11:25;-21410.09;;;3.40;100.00
19890;BME280;10107;51.198;6.824;2023-01-19T14:15:28;-21413.19;;;3.51;100.00
19890;BME280;10107;51.198;6.824;2023-01-19T14:19:48;-21412.91;;;3.50;100.00
19890;BME280;10107;51.198;6.824;2023-01-19T14:23:52;-21408.34;;;3.33;100.00
19890;BME280;10107;51.198;6.824;2023-01-19T14:28:28;-21402.06;;;3.09;100.00
19890;BME280;10107;51.198;6.824;2023-01-19T14:32:30;-21398.19;;;2.94;100.00
19890;BME280;10107;51.198;6.824;2023-01-19T14:36:33;-21394.56;;;2.80;100.00
19890;BME280;10107;51.198;6.824;2023-01-19T14:40:39;-21390.94;;;2.66;100.00
19890;BME280;10107;51.198;6.824;2023-01-19T14:44:44;-21386.91;;;2.51;100.00
19890;BME280;10107;51.198;6.824;2023-01-19T14:48:49;-21385.03;;;2.44;100.00
19890;BME280;10107;51.198;6.824;2023-01-19T14:52:54;-21384.66;;;2.42;100.00
19890;BME280;10107;51.198;6.824;2023-01-19T14:56:58;-21382.91;;;2.35;100.00
19890;BME280;10107;51.198;6.824;2023-01-19T15:01:00;-21381.81;;;2.31;100.00
19890;BME280;10107;51.198;6.824;2023-01-19T15:05:02;-21379.00;;;2.21;100.00
19890;BME280;10107;51.198;6.824;2023-01-19T15:09:03;-21375.25;;;2.06;100.00
19890;BME280;10107;51.198;6.824;2023-01-19T15:13:10;-21374.03;;;2.02;100.00
19890;BME280;10107;51.198;6.824;2023-01-19T15:17:18;-21373.91;;;2.01;100.00
19890;BME280;10107;51.198;6.824;2023-01-19T15:21:24;-21371.78;;;1.93;100.00
19890;BME280;10107;51.198;6.824;2023-01-19T15:25:26;-21370.81;;;1.89;100.00
19890;BME280;10107;51.198;6.824;2023-01-19T15:29:31;-21370.56;;;1.88;100.00
19890;BME280;10107;51.198;6.824;2023-01-19T15:33:33;-21370.97;;;1.90;100.00
19890;BME280;10107;51.198;6.824;2023-01-19T15:37:35;-21369.34;;;1.84;100.00
19890;BME280;10107;51.198;6.824;2023-01-19T15:41:37;-21367.47;;;1.76;100.00
19890;BME280;10107;51.198;6.824;2023-01-19T15:45:43;-21366.00;;;1.71;100.00
19890;BME280;10107;51.198;6.824;2023-01-19T15:49:47;-21364.50;;;1.65;100.00
19890;BME280;10107;51.198;6.824;2023-01-19T15:53:49;-21363.19;;;1.60;100.00
19890;BME280;10107;51.198;6.824;2023-01-19T15:57:51;-21363.44;;;1.61;100.00
19890;BME280;10107;51.198;6.824;2023-01-19T16:01:54;-21364.13;;;1.64;100.00
19890;BME280;10107;51.198;6.824;2023-01-19T16:05:58;-21363.19;;;1.60;100.00
19890;BME280;10107;51.198;6.824;2023-01-19T16:10:01;-21359.69;;;1.47;100.00
19890;BME280;10107;51.198;6.824;2023-01-19T16:14:04;-21357.53;;;1.38;100.00
19890;BME280;10107;51.198;6.824;2023-01-19T16:18:07;-21357.00;;;1.36;100.00
19890;BME280;10107;51.198;6.824;2023-01-19T16:22:10;-21355.13;;;1.29;100.00
19890;BME280;10107;51.198;6.824;2023-01-19T16:26:27;-21352.97;;;1.21;100.00
19890;BME280;10107;51.198;6.824;2023-01-19T16:30:29;-21350.16;;;1.10;100.00
19890;BME280;10107;51.198;6.824;2023-01-19T16:34:34;-21347.88;;;1.02;100.00
19890;BME280;10107;51.198;6.824;2023-01-19T16:38:36;-21347.47;;;1.00;100.00
19890;BME280;10107;51.198;6.824;2023-01-19T16:42:38;-21347.59;;;1.01;100.00
19890;BME280;10107;51.198;6.824;2023-01-19T16:46:41;-21348.41;;;1.04;100.00
19890;BME280;10107;51.198;6.824;2023-01-19T16:50:44;-21349.22;;;1.07;100.00
19890;BME280;10107;51.198;6.824;2023-01-19T16:54:57;-21350.81;;;1.13;100.00
19890;BME280;10107;51.198;6.824;2023-01-19T16:58:59;-21350.97;;;1.13;100.00
19890;BME280;10107;51.198;6.824;2023-01-19T17:03:00;-21350.56;;;1.12;100.00
19890;BME280;10107;51.198;6.824;2023-01-19T17:07:03;-21348.69;;;1.05;100.00
19890;BME280;10107;51.198;6.824;2023-01-19T17:11:09;-21346.78;;;0.97;100.00
19890;BME280;10107;51.198;6.824;2023-01-19T17:15:11;-21345.06;;;0.91;100.00
19890;BME280;10107;51.198;6.824;2023-01-19T17:19:15;-21344.78;;;0.90;100.00
19890;BME280;10107;51.198;6.824;2023-01-19T17:23:18;-21343.97;;;0.87;100.00
19890;BME280;10107;51.198;6.824;2023-01-19T17:27:20;-21343.03;;;0.83;100.00
19890;BME280;10107;51.198;6.824;2023-01-19T17:31:22;-21342.34;;;0.81;100.00
19890;BME280;10107;51.198;6.824;2023-01-19T17:35:23;-21341.56;;;0.77;100.00
19890;BME280;10107;51.198;6.824;2023-01-19T17:39:26;-21340.22;;;0.72;100.00
19890;BME280;10107;51.198;6.824;2023-01-19T17:43:29;-21337.94;;;0.64;100.00
19890;BME280;10107;51.198;6.824;2023-01-19T17:47:30;-21334.69;;;0.51;100.00
19890;BME280;10107;51.198;6.824;2023-01-19T17:51:32;-21332.16;;;0.42;100.00
19890;BME280;10107;51.198;6.824;2023-01-19T17:55:35;-21329.84;;;0.33;100.00
19890;BME280;10107;51.198;6.824;2023-01-19T17:59:38;-21328.13;;;0.26;100.00
19890;BME280;10107;51.198;6.824;2023-01-19T18:03:43;-21325.28;;;0.15;100.00
19890;BME280;10107;51.198;6.824;2023-01-19T18:07:46;-21322.88;;;0.06;100.00
19890;BME280;10107;51.198;6.824;2023-01-19T18:11:49;-21320.03;;;-0.05;100.00
19890;BME280;10107;51.198;6.824;2023-01-19T18:15:51;-21319.50;;;-0.07;100.00
19890;BME280;10107;51.198;6.824;2023-01-19T18:19:53;-21318.56;;;-0.10;100.00
19890;BME280;10107;51.198;6.824;2023-01-19T18:23:58;-21317.63;;;-0.14;100.00
19890;BME280;10107;51.198;6.824;2023-01-19T18:28:03;-21315.88;;;-0.21;100.00
19890;BME280;10107;51.198;6.824;2023-01-19T18:32:05;-21313.44;;;-0.30;100.00
19890;BME280;10107;51.198;6.824;2023-01-19T18:36:08;-21311.28;;;-0.38;100.00
19890;BME280;10107;51.198;6.824;2023-01-19T18:40:10;-21308.88;;;-0.47;100.00
19890;BME280;10107;51.198;6.824;2023-01-19T18:44:14;-21309.69;;;-0.44;100.00
19890;BME280;10107;51.198;6.824;2023-01-19T18:48:15;-21312.38;;;-0.34;100.00
19890;BME280;10107;51.198;6.824;2023-01-19T18:52:17;-21313.19;;;-0.31;100.00
19890;BME280;10107;51.198;6.824;2023-01-19T18:56:19;-21313.44;;;-0.30;100.00
19890;BME280;10107;51.198;6.824;2023-01-19T19:00:23;-21312.63;;;-0.33;100.00
19890;BME280;10107;51.198;6.824;2023-01-19T19:04:25;-21309.81;;;-0.44;100.00
19890;BME280;10107;51.198;6.824;2023-01-19T19:08:26;-21306.19;;;-0.57;100.00
19890;BME280;10107;51.198;6.824;2023-01-19T19:12:28;-21303.75;;;-0.67;100.00
19890;BME280;10107;51.198;6.824;2023-01-19T19:16:31;-21300.38;;;-0.80;100.00
19890;BME280;10107;51.198;6.824;2023-01-19T19:20:36;-21298.50;;;-0.87;100.00
19890;BME280;10107;51.198;6.824;2023-01-19T19:24:38;-21296.63;;;-0.94;100.00
19890;BME280;10107;51.198;6.824;2023-01-19T19:28:40;-21296.34;;;-0.95;100.00
19890;BME280;10107;51.198;6.824;2023-01-19T19:32:43;-21296.75;;;-0.93;100.00
19890;BME280;10107;51.198;6.824;2023-01-19T19:36:45;-21299.19;;;-0.84;100.00
19890;BME280;10107;51.198;6.824;2023-01-19T19:40:46;-21304.28;;;-0.65;100.00
19890;BME280;10107;51.198;6.824;2023-01-19T19:44:48;-21308.06;;;-0.50;100.00
19890;BME280;10107;51.198;6.824;2023-01-19T19:48:53;-21309.69;;;-0.44;100.00
19890;BME280;10107;51.198;6.824;2023-01-19T19:52:55;-21307.94;;;-0.51;100.00
19890;BME280;10107;51.198;6.824;2023-01-19T19:56:58;-21304.44;;;-0.64;100.00
19890;BME280;10107;51.198;6.824;2023-01-19T20:01:06;-21301.59;;;-0.75;100.00
19890;BME280;10107;51.198;6.824;2023-01-19T20:05:09;-21300.13;;;-0.81;100.00
19890;BME280;10107;51.198;6.824;2023-01-19T20:09:12;-21298.22;;;-0.88;100.00
19890;BME280;10107;51.198;6.824;2023-01-19T20:13:15;-21295.81;;;-0.97;100.00
19890;BME280;10107;51.198;6.824;2023-01-19T20:17:18;-21293.78;;;-1.05;100.00
19890;BME280;10107;51.198;6.824;2023-01-19T20:21:23;-21291.38;;;-1.14;100.00
19890;BME280;10107;51.198;6.824;2023-01-19T20:25:25;-21289.34;;;-1.22;100.00
19890;BME280;10107;51.198;6.824;2023-01-19T20:29:27;-21288.94;;;-1.23;100.00
19890;BME280;10107;51.198;6.824;2023-01-19T20:33:30;-21286.50;;;-1.32;100.00
19890;BME280;10107;51.198;6.824;2023-01-19T20:37:33;-21284.63;;;-1.40;100.00
19890;BME280;10107;51.198;6.824;2023-01-19T20:41:35;-21283.28;;;-1.45;100.00
19890;BME280;10107;51.198;6.824;2023-01-19T20:45:42;-21282.75;;;-1.47;100.00
19890;BME280;10107;51.198;6.824;2023-01-19T20:49:44;-21281.94;;;-1.50;100.00
19890;BME280;10107;51.198;6.824;2023-01-19T20:53:47;-21279.63;;;-1.58;100.00
19890;BME280;10107;51.198;6.824;2023-01-19T20:57:49;-21279.78;;;-1.58;100.00
19890;BME280;10107;51.198;6.824;2023-01-19T21:01:51;-21278.28;;;-1.64;100.00
19890;BME280;10107;51.198;6.824;2023-01-19T21:05:53;-21275.06;;;-1.76;100.00
19890;BME280;10107;51.198;6.824;2023-01-19T21:09:56;-21272.91;;;-1.84;100.00
19890;BME280;10107;51.198;6.824;2023-01-19T21:14:01;-21271.53;;;-1.89;100.00
19890;BME280;10107;51.198;6.824;2023-01-19T21:18:03;-21270.19;;;-1.94;100.00